Loring, Montana
Current Conditions -  °F | °C
As of 4:53 AM on Thursday 18 Dec 2014 (Local Time) from KGGW Reporting Station
Overcast Overcast  
Wind Chill: 16°   Ceiling: 800
Heat Index: 24°   Visibility: 9mi
Dew Point: 20°   Wind: 7mph
Humidity: 84%   Direction: 110°ESE
Pressure: 29.94"   Gusts: NA
Location:  48.79°N, 107.86°W
Report Text: KGGW 181153Z AUTO 11006KT 9SM OVC008 M04/M07 A2994 RMK AO2 SLP175 60000 T10441067 11044 21050 56003
Loading
Personal Weather Stations






























Interactive Weather Map New forecast layout! Learn more

10-Day Weather Forecast

Advertisements
Track Severe Weather on mobile